• Join FlightAware (Why Join?)
  • Login
  • US Flag GB Flag 
02:30 EDT


 

Airport Tracker/Info


-or-


 

Live Flight TrackerFlight Track Log ✈ GGN7281 ✈ 04-May-2013 ✈ KALB - CYYZ

Flight Track Log - Related Links

Times and Time Zones

All times are in EDT time to prevent confusion due to time zone crossing. See the GGN7281 flight status page for this flight to view local times or setup timezone preferences in your user account.

Time Position Orientation Groundspeed Altitude Reporting Facility
EDT Latitude Longitude Course Direction KTS MPH feet Rate Location/Type
11:08 42.7611 -73.8061 359° North 128 147 1,200  Level Boston Center
11:09 42.7922 -73.8067 359° North 145 167 2,900 1,920 Climbing Boston Center
11:10 42.8417 -73.8700 317° Northwest 170 196 5,500 1,860 Climbing Boston Center
11:11 42.8744 -73.9161 314° West 170 196 7,500 1,980 Climbing Boston Center
11:12 42.8775 -73.9900 273° West 176 203 9,500 1,800 Climbing Boston Center
11:13 42.8828 -74.0664 275° West 202 232 11,100 1,620 Climbing Boston Center
11:14 42.8858 -74.1458 273° West 214 246 12,800 1,500 Climbing Boston Center
11:15 42.8864 -74.2311 271° West 214 246 14,100 1,500 Climbing Boston Center
11:16 42.8914 -74.3133 275° West 219 252 15,800 1,560 Climbing Boston Center
11:17 42.8961 -74.4014 274° West 229 264 17,300 1,380 Climbing Boston Center
11:18 42.8947 -74.4892 269° West 236 272 18,600 1,140 Climbing Boston Center
11:19 42.8972 -74.5772 272° West 236 272 19,600 660 Climbing Boston Center
11:20 42.8994 -74.6792 272° West 254 292 20,000 120 Climbing Boston Center
11:21 42.9014 -74.7869 271° West 269 310 19,900  Descending Boston Center
11:22 42.9031 -74.9006 271° West 290 334 20,000  Climbing Boston Center
11:23 42.9050 -75.0111 271° West 295 339 20,000  Level Boston Center
11:24 42.9064 -75.1247 271° West 295 339 20,000  Level Boston Center
11:25 42.9100 -75.2381 273° West 295 339 20,000  Level Boston Center
11:26 42.9133 -75.3489 272° West 295 339 20,000  Level Boston Center
11:27 42.9169 -75.4597 273° West 300 345 20,000  Level Boston Center
11:28 42.9158 -75.5703 269° West 295 339 20,000  Level Boston Center
11:29 42.9169 -75.6808 271° West 295 339 20,000  Level Boston Center
11:30 42.9200 -75.7944 272° West 295 339 20,000  Level Boston Center
11:31 42.9228 -75.9053 272° West 295 339 20,000  Level Boston Center
11:32 42.9236 -76.0189 271° West 295 339 20,000  Level Boston Center
11:33 42.9264 -76.1267 272° West 295 339 20,000  Level Boston Center
11:35 42.9258 -76.3808 270° West 294 338 20,000  Level Cleveland Center
11:36 42.9297 -76.4939 273° West 294 338 20,000  Level Cleveland Center
11:37 42.9294 -76.6044 270° West 294 338 20,000  Level Cleveland Center
11:38 42.9317 -76.7264 271° West 294 338 20,000  Level Cleveland Center
11:39 42.9331 -76.8397 271° West 289 333 20,000  Level Cleveland Center
11:40 42.9325 -76.9503 270° West 289 333 20,000  Level Cleveland Center
11:41 42.9503 -77.0544 283° West 289 333 20,000  Level Cleveland Center
11:42 42.9703 -77.1611 284° West 294 338 20,000  Level Cleveland Center
11:43 42.9858 -77.2708 281° West 294 338 20,000  Level Cleveland Center
11:44 43.0036 -77.3778 283° West 294 338 20,000  Level Cleveland Center
11:45 43.0211 -77.4850 283° West 294 338 20,000 -300 Level Cleveland Center
11:46 43.0406 -77.5919 284° West 294 338 19,500 -900 Descending Cleveland Center
11:47 43.0622 -77.7017 285° West 294 338 18,200 -1,200 Descending Cleveland Center
11:48 43.0753 -77.8092 279° West 294 338 17,100 -1,020 Descending Cleveland Center
11:49 43.0839 -77.9197 276° West 294 338 16,200 -600 Descending Cleveland Center
11:50 43.1011 -78.0297 282° West 294 338 16,000 -120 Descending Cleveland Center
11:51 43.1219 -78.1342 285° West 294 338 16,000 -720 Level Cleveland Center
11:52 43.1389 -78.2472 282° West 294 338 14,600 -1,020 Descending Cleveland Center
11:53 43.1578 -78.3578 283° West 294 338 14,000 -360 Descending Cleveland Center
11:54 43.1722 -78.4625 281° West 294 338 13,900  Descending Cleveland Center
11:55 43.1889 -78.5672 282° West 294 338 14,000 -300 Climbing Cleveland Center
11:56 43.2050 -78.6722 282° West 289 333 13,400 -900 Descending Cleveland Center
11:57 43.2214 -78.7800 282° West 289 333 12,300 -840 Descending Cleveland Center
11:59 43.2500 -78.9667 282° West 280 322 11,000 -480 Descending Toronto Center
12:00 43.2500 -79.0667 270° West 270 311 10,900 -300 Descending Toronto Center
12:01 43.2667 -79.1833 281° West 270 311 10,500 -720 Descending Toronto Center
12:02 43.2833 -79.2667 285° West 280 322 9,500 -900 Descending Toronto Center
12:03 43.3333 -79.3500 310° West 280 322 8,800 -780 Descending Toronto Center
12:04 43.4000 -79.4000 331° Northwest 290 334 8,000 -420 Descending Toronto Center
12:05 43.4667 -79.4667 324° Northwest 280 322 8,000 -60 Level Toronto Center
12:06 43.5000 -79.5667 295° West 270 311 7,900 -60 Descending Toronto Center
12:07 43.5667 -79.6167 331° Northwest 270 311 7,900 -240 Level Toronto Center
12:08 43.6000 -79.5667 47° Northeast 250 288 7,500 -1,080 Descending Toronto Center
12:09 43.6500 -79.5000 44° Northeast 230 265 5,800 -1,800 Descending Toronto Center
12:10 43.6667 -79.4333 71° East 220 253 4,000 -1,380 Descending Toronto Center
12:11 43.7333 -79.4000 20° North 220 253 3,100 -600 Descending Toronto Center
12:12 43.7500 -79.4500 295° West 180 207 2,900 -600 Descending Toronto Center
12:13 43.7167 -79.5167 235° Southwest 180 207 2,000 -900 Descending Toronto Center
12:14 43.6833 -79.5333 200° South 170 196 1,100 -780 Descending Toronto Center
12:15 43.6667 -79.5833 245° Southwest 130 150 500 -600 Descending Toronto Center